Time;durP1;ratioP1;P1;durP2;ratioP2;P2;SDS_P1;SDS_P2;PMS_P1;PMS_P2;Temp;Humidity;BMP_temperature;BMP_pressure;BME280_temperature;BME280_humidity;BME280_pressure;Samples;Min_cycle;Max_cycle;Signal;HPM_P1;HPM_P2
2023/12/25 00:02:23;;;;;;;28.58;4.65;;;13.30;99.90;;;;;;6341061;22;19995;-90
2023/12/25 00:05:08;;;;;;;23.52;5.50;;;12.90;99.90;;;;;;6340221;22;20518;-88
2023/12/25 00:07:54;;;;;;;23.63;3.97;;;11.50;99.90;;;;;;6342320;22;20003;-89
2023/12/25 00:10:31;;;;;;;29.85;5.55;;;13.30;99.90;;;;;;6341051;22;20006;-89
2023/12/25 00:13:27;;;;;;;17.48;4.47;;;12.40;99.90;;;;;;6339667;22;20149;-89
2023/12/25 00:16:18;;;;;;;23.92;3.97;;;12.10;99.90;;;;;;6339998;22;20002;-89
2023/12/25 00:19:40;;;;;;;35.95;6.05;;;12.10;99.90;;;;;;6339375;22;19999;-90
2023/12/25 00:22:31;;;;;;;25.05;6.32;;;12.20;99.90;;;;;;6244064;23;20083;-90
2023/12/25 00:28:09;;;;;;;39.33;5.38;;;11.40;99.90;;;;;;6182712;23;20095;-89
2023/12/25 00:31:13;;;;;;;21.55;4.07;;;13.10;99.90;;;;;;6229772;23;20054;-90
2023/12/25 00:37:12;;;;;;;25.77;5.38;;;11.90;99.90;;;;;;6250215;23;20000;-89
2023/12/25 00:43:47;;;;;;;23.60;4.35;;;12.50;99.90;;;;;;6333477;22;20093;-91
2023/12/25 00:47:00;;;;;;;27.52;5.32;;;12.20;99.90;;;;;;6316631;22;20003;-90
2023/12/25 00:49:40;;;;;;;27.00;4.03;;;12.20;99.90;;;;;;6330322;22;20049;-87
2023/12/25 00:52:16;;;;;;;28.80;5.70;;;13.30;99.90;;;;;;6338504;22;19995;-90
2023/12/25 00:55:08;;;;;;;23.85;5.22;;;13.20;99.90;;;;;;6258311;22;20431;-90
2023/12/25 01:01:11;;;;;;;24.83;5.07;;;12.20;99.90;;;;;;6345792;22;20023;-90
2023/12/25 01:03:49;;;;;;;22.98;3.88;;;12.30;99.90;;;;;;6339435;22;20019;-92
2023/12/25 01:06:35;;;;;;;32.78;5.93;;;12.20;99.90;;;;;;6337048;22;20089;-91
2023/12/25 01:12:09;;;;;;;34.63;5.10;;;12.20;99.90;;;;;;6338777;22;20014;-93
2023/12/25 01:20:48;;;;;;;;;;;;;;;;;;;;;
2023/12/25 01:23:17;;;;;;;24.48;4.82;;;12.10;99.90;;;;;;6276987;22;20074;-91
2023/12/25 01:25:51;;;;;;;27.00;5.88;;;13.60;99.90;;;;;;6339175;22;20078;-91
2023/12/25 01:28:34;;;;;;;24.30;4.53;;;12.10;99.90;;;;;;6342267;22;20456;-92
2023/12/25 01:31:09;;;;;;;28.75;6.05;;;12.10;99.90;;;;;;6343313;22;20445;-91
2023/12/25 01:33:40;;;;;;;30.85;4.88;;;13.00;99.90;;;;;;6338464;22;20099;-89
2023/12/25 01:39:46;;;;;;;29.52;6.00;;;12.40;99.90;;;;;;6339876;22;20006;-91
2023/12/25 01:42:24;;;;;;;;;;;;;;;;;;;;;
2023/12/25 01:45:43;;;;;;;34.40;5.65;;;12.90;99.90;;;;;;6235667;22;20077;-93
2023/12/25 01:48:35;;;;;;;32.88;6.07;;;11.70;99.90;;;;;;6339246;22;20011;-91
2023/12/25 02:51:56;;;;;;;;;;;;;;;;;;;;;
2023/12/25 02:54:38;;;;;;;20.30;3.65;;;12.10;99.90;;;;;;6089875;23;20092;-89
2023/12/25 03:18:01;;;;;;;18.70;3.65;;;12.10;99.90;;;;;;6165809;23;20020;-91
2023/12/25 04:02:25;;;;;;;23.50;4.20;;;13.10;99.90;;;;;;6330422;22;20030;-90
2023/12/25 04:05:24;;;;;;;24.70;4.28;;;11.80;99.90;;;;;;6340318;22;20014;-90
2023/12/25 04:08:00;;;;;;;19.05;3.53;;;12.20;99.90;;;;;;6338435;22;19999;-87
2023/12/25 04:10:35;;;;;;;26.05;4.15;;;12.90;99.90;;;;;;6342475;22;20006;-88
2023/12/25 04:13:07;;;;;;;17.45;3.88;;;12.60;99.90;;;;;;6342386;22;20007;-89
2023/12/25 04:50:14;;;;;;;;;;;;;;;;;;;;;
2023/12/25 05:15:54;;;;;;;3.55;1.20;;;12.00;99.90;;;;;;6337868;22;20053;-91
2023/12/25 05:25:17;;;;;;;1.63;0.82;;;12.60;99.90;;;;;;6331405;22;20003;-89
2023/12/25 05:27:51;;;;;;;1.75;0.90;;;11.90;99.90;;;;;;6298487;22;20098;-89
2023/12/25 05:44:11;;;;;;;1.58;0.40;;;11.60;99.90;;;;;;6355900;22;20018;-86
2023/12/25 05:46:41;;;;;;;3.45;0.60;;;11.60;99.90;;;;;;6370218;22;20035;-86
2023/12/25 05:49:21;;;;;;;2.90;0.60;;;11.60;99.90;;;;;;6370994;22;20002;-90
2023/12/25 05:52:00;;;;;;;2.80;0.40;;;12.60;99.90;;;;;;6371274;22;20298;-87
2023/12/25 05:54:35;;;;;;;3.00;0.80;;;11.50;99.90;;;;;;6317084;22;20363;-88
2023/12/25 05:57:12;;;;;;;7.78;0.82;;;12.20;99.90;;;;;;6371673;22;20053;-87
2023/12/25 05:59:37;;;;;;;2.13;0.55;;;12.50;99.90;;;;;;6375823;22;20002;-89
2023/12/25 06:02:21;;;;;;;2.20;0.52;;;12.40;99.90;;;;;;6359225;22;20328;-89
2023/12/25 06:05:22;;;;;;;4.13;0.98;;;12.30;99.90;;;;;;6328521;22;20030;-90
2023/12/25 06:07:50;;;;;;;;;;;11.50;99.90;;;;;;6277161;22;20028;-87
2023/12/25 06:11:05;;;;;;;1.23;0.57;;;12.10;99.90;;;;;;6288158;22;19906;-90
2023/12/25 06:13:32;;;;;;;2.67;0.55;;;11.20;99.90;;;;;;6339805;22;20011;-89
2023/12/25 06:16:09;;;;;;;1.15;0.70;;;12.40;99.90;;;;;;6337969;22;20515;-89
2023/12/25 06:18:49;;;;;;;2.15;0.73;;;12.10;99.90;;;;;;6338525;22;20447;-90
2023/12/25 06:21:20;;;;;;;4.17;0.80;;;11.90;99.90;;;;;;6339001;22;20005;-89
2023/12/25 06:23:45;;;;;;;4.85;0.93;;;12.50;99.90;;;;;;6352071;22;20036;-91
2023/12/25 06:26:59;;;;;;;5.88;0.75;;;12.70;99.90;;;;;;6355470;22;20007;-91
2023/12/25 06:29:41;;;;;;;4.45;1.00;;;11.60;99.90;;;;;;6339466;22;20002;-88
2023/12/25 06:32:19;;;;;;;3.47;0.80;;;12.40;99.90;;;;;;6340484;22;20029;-89
2023/12/25 07:16:23;;;;;;;3.08;0.93;;;11.40;99.90;;;;;;6337999;22;20045;-92
2023/12/25 07:24:29;;;;;;;6.70;0.90;;;11.50;99.90;;;;;;6330777;22;20046;-89
2023/12/25 07:26:57;;;;;;;2.05;1.02;;;11.70;99.90;;;;;;6370115;22;20009;-89
2023/12/25 07:29:25;;;;;;;2.92;0.82;;;11.60;99.90;;;;;;6345369;22;20315;-88
2023/12/25 07:31:54;;;;;;;3.58;0.80;;;12.60;99.90;;;;;;6369785;22;20037;-90
2023/12/25 07:34:20;;;;;;;3.50;0.90;;;11.60;99.90;;;;;;6371077;22;20041;-87
2023/12/25 07:37:06;;;;;;;2.67;0.90;;;12.60;99.90;;;;;;6367763;22;20001;-92
2023/12/25 07:39:35;;;;;;;3.85;1.08;;;11.60;99.90;;;;;;6371352;22;20014;-89
2023/12/25 07:42:04;;;;;;;3.88;1.00;;;11.40;99.90;;;;;;6367592;22;20073;-88
2023/12/25 07:44:37;;;;;;;2.38;0.80;;;11.60;99.90;;;;;;6373299;22;20054;-88
2023/12/25 07:47:17;;;;;;;2.47;0.73;;;11.10;99.90;;;;;;6386975;22;20006;-87
2023/12/25 07:49:42;;;;;;;3.80;1.38;;;12.30;99.90;;;;;;6374154;22;20441;-87
2023/12/25 07:52:08;;;;;;;7.00;1.25;;;11.70;99.90;;;;;;6371285;22;19998;-86
2023/12/25 07:54:34;;;;;;;4.55;0.85;;;12.60;99.90;;;;;;6366529;22;20014;-86
2023/12/25 07:57:00;;;;;;;3.45;0.80;;;12.10;99.90;;;;;;6366562;22;20010;-88
2023/12/25 07:59:26;;;;;;;2.80;1.20;;;11.60;99.90;;;;;;6368709;22;20002;-88
2023/12/25 08:02:01;;;;;;;8.02;0.93;;;11.70;99.90;;;;;;6367537;22;20002;-86
2023/12/25 08:04:26;;;;;;;2.88;0.98;;;12.50;99.90;;;;;;6368861;22;20078;-90
2023/12/25 08:06:54;;;;;;;4.82;1.48;;;11.60;99.90;;;;;;6368484;22;20018;-87
2023/12/25 08:09:24;;;;;;;3.70;0.63;;;11.60;99.90;;;;;;6368083;22;20002;-89
2023/12/25 08:14:51;;;;;;;2.20;0.70;;;11.60;99.90;;;;;;6367649;22;20046;-88
2023/12/25 08:17:42;;;;;;;2.20;0.80;;;12.50;99.90;;;;;;6341669;22;20014;-92
2023/12/25 08:20:09;;;;;;;2.45;1.08;;;11.60;99.90;;;;;;6369487;22;20016;-90
2023/12/25 08:22:50;;;;;;;2.88;0.70;;;11.60;99.90;;;;;;6357797;22;20007;-90
2023/12/25 08:25:17;;;;;;;;;;;11.60;99.90;;;;;;6371332;22;20006;-90
2023/12/25 08:28:01;;;;;;;5.40;0.90;;;11.60;99.90;;;;;;6363710;22;19922;-88
2023/12/25 08:30:47;;;;;;;2.70;0.80;;;11.60;99.90;;;;;;6368817;22;20073;-90
2023/12/25 08:33:13;;;;;;;2.72;0.63;;;11.50;99.90;;;;;;6370046;22;20374;-91
2023/12/25 08:35:55;;;;;;;3.55;0.80;;;11.40;99.90;;;;;;6369590;22;20032;-92
2023/12/25 08:38:21;;;;;;;5.82;0.88;;;12.40;99.90;;;;;;6371006;22;20061;-92
2023/12/25 08:41:02;;;;;;;3.30;0.70;;;12.30;99.90;;;;;;6368897;22;20349;-88
2023/12/25 08:43:42;;;;;;;4.25;1.38;;;11.40;99.90;;;;;;6369554;22;20003;-90
2023/12/25 08:46:09;;;;;;;2.60;0.85;;;11.90;99.90;;;;;;6370980;22;20026;-90
2023/12/25 08:48:34;;;;;;;4.05;0.70;;;12.50;99.90;;;;;;6369326;22;20005;-86
2023/12/25 08:51:15;;;;;;;2.83;1.00;;;11.40;99.90;;;;;;6366405;22;20002;-89
2023/12/25 08:53:42;;;;;;;;;;;11.60;99.90;;;;;;6376798;22;20022;-86
2023/12/25 08:56:09;;;;;;;3.38;1.27;;;11.50;99.90;;;;;;6366776;22;19906;-87
2023/12/25 08:58:46;;;;;;;5.00;1.23;;;12.70;99.90;;;;;;6368086;22;20060;-91
2023/12/25 09:01:12;;;;;;;2.65;0.90;;;12.20;99.90;;;;;;6367941;22;20037;-87
2023/12/25 09:03:39;;;;;;;2.10;0.82;;;11.50;99.90;;;;;;6368132;22;19995;-91
2023/12/25 09:06:04;;;;;;;2.42;0.77;;;11.80;99.90;;;;;;6372252;22;19990;-88
2023/12/25 09:08:32;;;;;;;6.43;1.05;;;11.50;99.90;;;;;;6391578;22;20007;-88
2023/12/25 09:11:09;;;;;;;5.13;1.02;;;11.50;99.90;;;;;;6374738;22;20160;-90
2023/12/25 09:13:35;;;;;;;3.72;0.70;;;11.50;99.90;;;;;;6367296;22;20014;-88
2023/12/25 09:16:22;;;;;;;2.80;1.13;;;11.50;99.90;;;;;;6368935;22;20017;-89
2023/12/25 09:18:48;;;;;;;5.53;1.20;;;12.40;99.90;;;;;;6367212;22;20074;-89
2023/12/25 09:21:17;;;;;;;6.35;1.23;;;11.80;99.90;;;;;;6365162;22;20006;-88
2023/12/25 09:24:01;;;;;;;1.90;0.70;;;12.30;99.90;;;;;;6339758;22;20586;-90
2023/12/25 09:26:26;;;;;;;8.35;2.17;;;11.40;99.90;;;;;;6368010;22;20001;-89
2023/12/25 09:28:58;;;;;;;5.25;0.90;;;11.50;99.90;;;;;;6365404;22;20010;-90
2023/12/25 09:31:24;;;;;;;9.38;1.15;;;11.40;99.90;;;;;;6365674;22;20106;-85
2023/12/25 09:34:04;;;;;;;2.88;0.95;;;12.40;99.90;;;;;;6371365;22;20079;-91
2023/12/25 09:36:30;;;;;;;1.48;0.65;;;11.50;99.90;;;;;;6373322;22;20067;-89
2023/12/25 09:38:56;;;;;;;7.05;1.20;;;11.40;99.90;;;;;;6378826;22;20010;-88
2023/12/25 09:41:23;;;;;;;1.48;0.70;;;12.30;99.90;;;;;;6370303;22;20007;-89
2023/12/25 09:44:16;;;;;;;4.28;0.82;;;12.00;99.90;;;;;;6367312;22;20006;-90
2023/12/25 09:46:44;;;;;;;2.63;0.90;;;11.50;99.90;;;;;;6367204;22;20040;-88
2023/12/25 09:49:16;;;;;;;5.22;1.38;;;11.50;99.90;;;;;;6364595;22;20006;-85
2023/12/25 09:51:44;;;;;;;4.88;1.08;;;11.50;99.90;;;;;;6364397;22;20033;-88
2023/12/25 09:54:15;;;;;;;2.67;1.33;;;12.50;99.90;;;;;;6367095;22;20448;-88
2023/12/25 09:57:03;;;;;;;2.55;1.00;;;11.50;99.90;;;;;;6366294;22;19998;-90
2023/12/25 09:59:30;;;;;;;2.83;0.70;;;11.50;99.90;;;;;;6368747;22;20002;-88
2023/12/25 10:02:06;;;;;;;7.30;1.38;;;12.30;99.90;;;;;;6368095;22;20006;-91
2023/12/25 10:04:50;;;;;;;5.68;1.02;;;12.50;99.90;;;;;;6371260;22;20069;-89
2023/12/25 10:07:44;;;;;;;8.45;1.63;;;11.10;99.90;;;;;;6369593;22;20417;-92
2023/12/25 10:10:36;;;;;;;6.55;1.98;;;12.10;99.90;;;;;;6350937;22;20013;-92
2023/12/25 10:13:28;;;;;;;6.90;1.52;;;11.60;99.90;;;;;;6347910;22;20018;-92
2023/12/25 10:16:12;;;;;;;8.35;1.15;;;11.00;99.90;;;;;;6340039;22;20015;-89
2023/12/25 10:18:56;;;;;;;5.90;1.13;;;11.00;99.90;;;;;;6312587;22;20007;-89
2023/12/25 10:21:44;;;;;;;4.00;0.93;;;12.50;99.90;;;;;;6338187;22;20449;-91
2023/12/25 10:24:14;;;;;;;1.42;0.70;;;11.70;99.90;;;;;;6340015;22;20426;-90
2023/12/25 10:26:46;;;;;;;7.32;1.33;;;11.70;99.90;;;;;;6339889;22;19991;-85
2023/12/25 10:29:53;;;;;;;4.22;0.93;;;12.50;99.90;;;;;;6364788;22;20011;-90
2023/12/25 10:32:19;;;;;;;3.50;1.10;;;11.80;99.90;;;;;;6349379;22;20033;-83
2023/12/25 10:34:45;;;;;;;5.95;1.10;;;11.80;99.90;;;;;;6339882;22;20445;-87
2023/12/25 10:37:17;;;;;;;2.90;0.80;;;11.80;99.90;;;;;;6338572;22;20062;-89
2023/12/25 10:39:47;;;;;;;5.85;1.20;;;11.80;99.90;;;;;;6340102;22;20316;-88
2023/12/25 10:44:55;;;;;;;4.90;0.95;;;11.80;99.90;;;;;;6290006;22;20019;-87
2023/12/25 10:47:32;;;;;;;2.60;0.70;;;11.70;99.90;;;;;;6279695;22;20026;-89
2023/12/25 10:50:21;;;;;;;5.05;1.33;;;12.40;99.90;;;;;;6276804;22;20031;-86
2023/12/25 10:53:09;;;;;;;3.83;1.20;;;11.30;99.90;;;;;;6277515;22;20019;-85
2023/12/25 10:55:58;;;;;;;6.32;1.33;;;11.50;99.90;;;;;;6278256;22;20012;-90
2023/12/25 10:58:43;;;;;;;2.90;0.93;;;11.20;99.90;;;;;;6275594;22;20049;-88
2023/12/25 11:01:28;;;;;;;7.90;1.13;;;11.50;99.90;;;;;;6278894;22;20011;-92
2023/12/25 11:04:17;;;;;;;1.75;0.80;;;11.70;99.90;;;;;;6277106;22;20013;-87
2023/12/25 11:06:47;;;;;;;3.58;0.90;;;11.60;99.90;;;;;;6276880;22;20003;-89
2023/12/25 11:09:19;;;;;;;4.85;0.95;;;12.00;99.90;;;;;;6278779;22;20442;-86
2023/12/25 11:11:46;;;;;;;4.25;1.20;;;11.60;99.90;;;;;;6274048;22;20000;-84
2023/12/25 11:14:12;;;;;;;0.75;0.60;;;11.60;99.90;;;;;;6275110;22;20090;-87
2023/12/25 11:16:45;;;;;;;6.80;1.77;;;11.60;99.90;;;;;;6278617;22;20046;-89
2023/12/25 11:19:26;;;;;;;2.83;1.00;;;11.60;99.90;;;;;;6278578;22;20065;-91
2023/12/25 11:22:26;;;;;;;4.25;1.10;;;11.90;99.90;;;;;;6277812;22;20388;-91
2023/12/25 11:24:52;;;;;;;6.43;1.83;;;11.60;99.90;;;;;;6279694;22;20428;-91
2023/12/25 11:27:19;;;;;;;6.35;1.25;;;11.60;99.90;;;;;;6291101;22;20065;-94
2023/12/25 11:29:48;;;;;;;5.82;1.30;;;11.60;99.90;;;;;;6283050;22;20003;-90
2023/12/25 11:32:17;;;;;;;6.15;1.48;;;11.60;99.90;;;;;;6280451;22;20074;-92
2023/12/25 11:34:48;;;;;;;5.00;1.52;;;11.50;99.90;;;;;;6277030;22;20015;-88
2023/12/25 11:37:20;;;;;;;6.20;1.63;;;12.40;99.90;;;;;;6276551;22;20008;-92
2023/12/25 11:40:05;;;;;;;5.45;1.20;;;11.50;99.90;;;;;;6277868;22;19999;-94
2023/12/25 11:42:32;;;;;;;8.13;1.52;;;11.50;99.90;;;;;;6283782;22;19999;-94
2023/12/25 11:45:08;;;;;;;3.40;0.75;;;12.50;99.90;;;;;;6311821;22;20335;-92
2023/12/25 11:47:56;;;;;;;5.35;1.33;;;11.60;99.90;;;;;;6305505;22;20003;-86
2023/12/25 11:50:48;;;;;;;4.22;1.10;;;11.60;99.90;;;;;;6325337;22;20018;-89
2023/12/25 11:53:39;;;;;;;2.42;0.90;;;12.10;99.90;;;;;;6191807;23;20001;-90
2023/12/25 11:56:05;;;;;;;;;;;11.70;99.90;;;;;;6311263;22;20010;-88
2023/12/25 11:58:34;;;;;;;8.80;1.83;;;11.60;99.90;;;;;;6308430;22;19898;-92
2023/12/25 12:00:59;;;;;;;6.65;1.73;;;11.80;99.90;;;;;;6307353;22;20000;-86
2023/12/25 12:03:32;;;;;;;4.65;1.80;;;11.40;99.90;;;;;;6306881;22;20009;-91
2023/12/25 12:08:34;;;;;;;4.53;1.65;;;11.70;99.90;;;;;;6340091;22;20018;-88
2023/12/25 12:11:16;;;;;;;4.45;1.02;;;12.40;99.90;;;;;;6340982;22;19999;-90
2023/12/25 12:13:57;;;;;;;3.25;1.20;;;11.80;99.90;;;;;;6340799;22;20012;-90
2023/12/25 12:16:24;;;;;;;6.07;0.98;;;12.70;99.90;;;;;;6338215;22;19999;-88
2023/12/25 12:18:49;;;;;;;6.18;1.73;;;12.60;99.90;;;;;;6341665;22;20010;-91
2023/12/25 12:21:27;;;;;;;4.88;1.08;;;11.70;99.90;;;;;;6345412;22;20407;-87
2023/12/25 12:23:57;;;;;;;4.95;1.25;;;11.80;99.90;;;;;;6341379;22;20003;-87
2023/12/25 12:26:26;;;;;;;3.70;1.30;;;11.00;99.90;;;;;;6336860;22;20005;-91
2023/12/25 12:28:54;;;;;;;2.25;0.90;;;11.90;99.90;;;;;;6337591;22;20236;-91
2023/12/25 12:31:19;;;;;;;3.90;1.05;;;12.60;99.90;;;;;;6335509;22;20003;-89
2023/12/25 12:33:46;;;;;;;5.30;1.25;;;13.00;99.90;;;;;;6337142;22;20079;-88
2023/12/25 12:36:12;;;;;;;6.40;1.63;;;12.90;99.90;;;;;;6353164;22;20450;-90
2023/12/25 12:38:53;;;;;;;3.50;1.20;;;12.60;99.90;;;;;;6342127;22;20026;-91
2023/12/25 12:41:22;;;;;;;5.43;1.58;;;12.90;99.90;;;;;;6337618;22;20006;-90
2023/12/25 12:44:05;;;;;;;6.43;1.45;;;12.70;99.90;;;;;;6340006;22;20430;-90
2023/12/25 12:46:32;;;;;;;8.98;1.02;;;12.60;99.90;;;;;;6338922;22;20069;-90
2023/12/25 12:48:58;;;;;;;3.25;0.85;;;12.00;99.90;;;;;;6336915;22;20007;-88
2023/12/25 12:51:25;;;;;;;4.85;1.23;;;12.80;99.90;;;;;;6339874;22;20081;-90
2023/12/25 12:53:53;;;;;;;2.33;0.90;;;12.50;99.90;;;;;;6338077;22;20430;-91
2023/12/25 12:56:18;;;;;;;8.38;1.25;;;12.20;99.90;;;;;;6337641;22;20450;-87
2023/12/25 12:58:44;;;;;;;6.68;1.67;;;12.20;99.90;;;;;;6336030;22;19999;-90
2023/12/25 13:01:23;;;;;;;6.38;1.45;;;11.90;99.90;;;;;;6341322;22;20003;-93
2023/12/25 13:03:54;;;;;;;5.47;1.48;;;11.60;99.90;;;;;;6339197;22;20022;-85
2023/12/25 13:06:23;;;;;;;10.77;1.48;;;11.50;99.90;;;;;;6337077;22;20026;-92
2023/12/25 13:08:52;;;;;;;8.00;1.67;;;11.80;99.90;;;;;;6337898;22;20007;-92
2023/12/25 13:11:25;;;;;;;4.28;1.15;;;11.80;99.90;;;;;;6357936;22;19994;-91
2023/12/25 13:14:06;;;;;;;5.57;1.30;;;11.80;99.90;;;;;;6356717;22;20007;-92
2023/12/25 13:16:48;;;;;;;7.28;1.30;;;11.80;99.90;;;;;;6338496;22;20010;-90
2023/12/25 13:19:22;;;;;;;4.07;1.65;;;11.20;99.90;;;;;;6341292;22;19995;-91
2023/12/25 13:21:50;;;;;;;4.07;1.08;;;11.80;99.90;;;;;;6341546;22;20003;-93
2023/12/25 13:24:15;;;;;;;6.47;1.25;;;11.90;99.90;;;;;;6340125;22;20013;-90
2023/12/25 13:27:27;;;;;;;9.70;1.80;;;11.80;99.90;;;;;;6341335;22;19995;-93
2023/12/25 13:30:21;;;;;;;5.70;1.23;;;11.80;99.90;;;;;;6341686;22;20013;-93
2023/12/25 13:33:07;;;;;;;4.72;1.00;;;11.10;99.90;;;;;;6339632;22;19998;-91
2023/12/25 13:35:57;;;;;;;5.07;1.27;;;11.80;99.90;;;;;;6339075;22;20014;-91
2023/12/25 13:38:41;;;;;;;3.63;1.10;;;11.80;99.90;;;;;;6338839;22;20075;-92
2023/12/25 13:41:11;;;;;;;2.42;1.13;;;11.80;99.90;;;;;;6339083;22;20033;-95
2023/12/25 13:43:55;;;;;;;5.95;1.05;;;11.80;99.90;;;;;;6339826;22;20003;-93
2023/12/25 13:46:21;;;;;;;4.95;1.33;;;11.80;99.90;;;;;;6337534;22;20026;-90
2023/12/25 13:48:57;;;;;;;5.95;2.92;;;11.80;99.90;;;;;;6338894;22;19995;-91
2023/12/25 13:51:45;;;;;;;3.88;1.27;;;11.80;99.90;;;;;;6342732;22;19999;-92
2023/12/25 13:54:10;;;;;;;5.65;1.25;;;11.80;99.90;;;;;;6331703;22;20042;-90
2023/12/25 13:56:51;;;;;;;8.50;1.40;;;11.80;99.90;;;;;;6310411;22;20000;-95
2023/12/25 13:59:18;;;;;;;4.03;1.00;;;11.80;99.90;;;;;;6311480;22;20010;-90
2023/12/25 14:01:50;;;;;;;3.08;0.88;;;11.90;99.90;;;;;;6311448;22;20008;-89
2023/12/25 14:04:16;;;;;;;1.77;1.23;;;11.90;99.90;;;;;;6308684;22;20007;-90
2023/12/25 14:07:06;;;;;;;2.92;0.57;;;11.90;99.90;;;;;;6309211;22;20064;-90
2023/12/25 14:09:49;;;;;;;6.13;0.90;;;11.90;99.90;;;;;;6314924;22;19992;-85
2023/12/25 14:12:40;;;;;;;2.53;0.90;;;11.90;99.90;;;;;;6309527;22;20003;-93
2023/12/25 14:15:07;;;;;;;2.67;0.90;;;11.90;99.90;;;;;;6311775;22;20042;-91
2023/12/25 14:17:33;;;;;;;4.22;1.13;;;11.90;99.90;;;;;;6312293;22;19999;-94
2023/12/25 14:20:21;;;;;;;2.83;0.80;;;11.80;99.90;;;;;;6317906;22;19999;-93
2023/12/25 14:23:07;;;;;;;1.65;0.73;;;11.70;99.90;;;;;;6309660;22;20042;-92
2023/12/25 14:25:33;;;;;;;4.63;1.17;;;11.70;99.90;;;;;;6322408;22;20047;-91
2023/12/25 14:27:59;;;;;;;3.63;1.25;;;11.60;99.90;;;;;;6327395;22;20618;-89
2023/12/25 14:37:15;;;;;;;11.52;2.13;;;11.20;99.90;;;;;;6333892;22;20025;-91
2023/12/25 14:39:41;;;;;;;7.10;1.98;;;11.70;99.90;;;;;;6348441;22;20066;-92
2023/12/25 14:42:07;;;;;;;12.25;2.10;;;11.70;99.90;;;;;;6342517;22;20003;-91
2023/12/25 14:45:04;;;;;;;13.90;3.50;;;11.80;99.90;;;;;;6341681;22;20055;-94
2023/12/25 14:47:53;;;;;;;17.92;3.03;;;11.80;99.90;;;;;;6341271;22;20029;-89
2023/12/25 14:50:22;;;;;;;13.88;3.58;;;11.80;99.90;;;;;;6341080;22;19998;-89
2023/12/25 14:53:01;;;;;;;12.73;3.65;;;11.80;99.90;;;;;;6338615;22;20044;-92
2023/12/25 14:55:34;;;;;;;16.08;3.47;;;11.80;99.90;;;;;;6345517;22;20018;-93
2023/12/25 14:58:08;;;;;;;18.10;3.92;;;11.80;99.90;;;;;;6342132;22;20426;-95
2023/12/25 15:03:10;;;;;;;21.00;3.83;;;11.80;99.90;;;;;;6341401;22;20033;-90
2023/12/25 15:05:42;;;;;;;29.40;4.88;;;11.80;99.90;;;;;;6344632;22;20078;-91
2023/12/25 15:08:08;;;;;;;25.33;4.53;;;11.80;99.90;;;;;;6342906;22;20003;-89
2023/12/25 15:10:38;;;;;;;23.00;5.03;;;11.80;99.90;;;;;;6340236;22;20015;-90
2023/12/25 15:13:04;;;;;;;23.75;4.97;;;11.20;99.90;;;;;;6340599;22;20006;-85
2023/12/25 15:15:32;;;;;;;28.27;5.93;;;11.80;99.90;;;;;;6338334;22;20453;-86
2023/12/25 15:18:00;;;;;;;36.95;6.07;;;11.30;99.90;;;;;;6340630;22;20014;-89
2023/12/25 15:20:27;;;;;;;30.75;5.80;;;11.90;99.90;;;;;;6340409;22;20064;-86
2023/12/25 15:23:05;;;;;;;27.83;5.05;;;11.90;99.90;;;;;;6340291;22;20014;-92
2023/12/25 15:25:43;;;;;;;21.38;4.03;;;11.80;99.90;;;;;;6340573;22;20074;-93
2023/12/25 15:28:18;;;;;;;21.20;5.78;;;11.80;99.90;;;;;;6339711;22;20024;-92
2023/12/25 15:30:52;;;;;;;19.77;4.15;;;11.80;99.90;;;;;;6339802;22;20071;-95
2023/12/25 15:33:33;;;;;;;19.38;3.53;;;11.80;99.90;;;;;;6339711;22;20105;-94
2023/12/25 15:36:24;;;;;;;21.23;4.57;;;11.80;99.90;;;;;;6340270;22;20014;-94
2023/12/25 15:38:50;;;;;;;13.27;3.13;;;11.80;99.90;;;;;;6339647;22;20026;-95
2023/12/25 15:41:17;;;;;;;23.70;4.15;;;11.90;99.90;;;;;;6338911;22;20003;-93
2023/12/25 15:44:07;;;;;;;18.92;3.10;;;11.80;99.90;;;;;;6339531;22;20457;-93
2023/12/25 15:47:23;;;;;;;30.23;4.63;;;11.80;99.90;;;;;;6339039;22;20005;-91
2023/12/25 15:50:05;;;;;;;17.70;2.72;;;11.80;99.90;;;;;;6339342;22;20074;-91
2023/12/25 15:52:34;;;;;;;19.05;3.60;;;11.90;99.90;;;;;;6345468;22;20079;-93
2023/12/25 15:58:41;;;;;;;17.48;3.33;;;11.80;99.90;;;;;;6347406;22;20013;-94
2023/12/25 16:01:12;;;;;;;21.63;4.40;;;11.80;99.90;;;;;;6341098;22;20438;-93
2023/12/25 16:03:53;;;;;;;20.10;3.13;;;11.90;99.90;;;;;;6339244;22;20050;-93
2023/12/25 16:06:23;;;;;;;15.27;3.30;;;11.90;99.90;;;;;;6340898;22;20001;-93
2023/12/25 16:08:58;;;;;;;17.73;4.43;;;11.80;99.90;;;;;;6341041;22;20007;-93
2023/12/25 16:11:31;;;;;;;21.70;4.55;;;11.90;99.90;;;;;;6340356;22;20002;-92
2023/12/25 16:14:21;;;;;;;21.75;4.40;;;11.90;99.90;;;;;;6331398;22;20098;-93
2023/12/25 16:16:50;;;;;;;21.30;3.70;;;11.80;99.90;;;;;;6328741;22;20041;-93
2023/12/25 16:19:55;;;;;;;8.73;2.38;;;11.90;99.90;;;;;;6327055;22;20004;-93
2023/12/25 16:22:33;;;;;;;15.95;3.47;;;11.90;99.90;;;;;;6324903;22;20033;-92
2023/12/25 16:25:20;;;;;;;9.45;3.80;;;11.90;99.90;;;;;;6341008;22;20037;-93
2023/12/25 16:28:24;;;;;;;9.60;2.88;;;11.80;99.90;;;;;;6340887;22;20073;-93
2023/12/25 16:30:59;;;;;;;8.13;3.40;;;11.90;99.90;;;;;;6340868;22;20410;-95
2023/12/25 16:33:26;;;;;;;10.13;2.67;;;11.90;99.90;;;;;;6339853;22;20002;-94
2023/12/25 16:36:02;;;;;;;17.73;3.55;;;11.90;99.90;;;;;;6340922;22;20007;-93
2023/12/25 16:38:40;;;;;;;15.82;3.13;;;11.90;99.90;;;;;;6340601;22;20006;-93
2023/12/25 16:41:15;;;;;;;12.63;2.47;;;11.90;99.90;;;;;;6340263;22;20070;-94
2023/12/25 16:44:16;;;;;;;12.02;2.92;;;11.80;99.90;;;;;;6340758;22;20062;-94
2023/12/25 16:46:46;;;;;;;11.95;3.13;;;11.90;99.90;;;;;;6340821;22;20006;-94
2023/12/25 16:49:17;;;;;;;10.80;2.55;;;11.90;99.90;;;;;;6346008;22;20010;-94
2023/12/25 16:51:49;;;;;;;7.53;2.92;;;11.80;99.90;;;;;;6343384;22;19998;-94
2023/12/25 16:57:48;;;;;;;9.90;2.75;;;11.80;99.90;;;;;;6339836;22;20010;-94
2023/12/25 17:00:21;;;;;;;12.48;3.05;;;11.90;99.90;;;;;;6340611;22;20081;-93
2023/12/25 17:02:53;;;;;;;11.88;2.95;;;11.80;99.90;;;;;;6341155;22;20003;-92
2023/12/25 17:05:29;;;;;;;11.40;3.10;;;11.80;99.90;;;;;;6341395;22;20386;-93
2023/12/25 17:07:58;;;;;;;11.35;3.58;;;11.80;99.90;;;;;;6340690;22;20007;-93
2023/12/25 17:10:38;;;;;;;12.60;3.75;;;11.80;99.90;;;;;;6340589;22;19998;-93
2023/12/25 17:13:18;;;;;;;11.38;3.47;;;11.80;99.90;;;;;;6340654;22;20030;-93
2023/12/25 17:16:10;;;;;;;;;;;11.80;99.90;;;;;;6366680;22;20034;-93
2023/12/25 17:18:37;;;;;;;12.13;3.05;;;11.80;99.90;;;;;;6349852;22;19909;-93
2023/12/25 17:21:15;;;;;;;7.15;2.60;;;11.80;99.90;;;;;;6345245;22;20020;-93
2023/12/25 17:23:41;;;;;;;9.52;2.95;;;11.80;99.90;;;;;;6337912;22;20011;-94
2023/12/25 17:26:14;;;;;;;12.38;3.30;;;11.80;99.90;;;;;;6340293;22;20361;-93
2023/12/25 17:28:45;;;;;;;11.95;2.55;;;11.80;99.90;;;;;;6339280;22;20026;-93
2023/12/25 17:31:22;;;;;;;5.43;2.30;;;11.70;99.90;;;;;;6340219;22;19995;-91
2023/12/25 17:33:49;;;;;;;9.80;2.40;;;11.70;99.90;;;;;;6338815;22;20006;-93
2023/12/25 17:36:15;;;;;;;10.02;2.95;;;11.70;99.90;;;;;;6339321;22;20037;-93
2023/12/25 17:38:54;;;;;;;7.78;2.83;;;11.60;99.90;;;;;;6342323;22;19999;-93
2023/12/25 17:41:20;;;;;;;8.10;2.70;;;11.60;99.90;;;;;;6344449;22;20006;-91
2023/12/25 17:43:49;;;;;;;5.45;1.75;;;11.60;99.90;;;;;;6348360;22;20027;-93
2023/12/25 17:46:16;;;;;;;6.60;2.03;;;11.60;99.90;;;;;;6309399;22;20099;-93
2023/12/25 17:48:42;;;;;;;8.85;1.85;;;11.60;99.90;;;;;;6308947;22;19996;-92
2023/12/25 17:51:10;;;;;;;4.57;1.77;;;11.60;99.90;;;;;;6307871;22;20034;-93
2023/12/25 17:53:38;;;;;;;5.35;1.90;;;11.70;99.90;;;;;;6308039;22;20007;-92
2023/12/25 17:56:06;;;;;;;7.90;1.67;;;11.60;99.90;;;;;;6308530;22;20090;-94
2023/12/25 17:58:46;;;;;;;3.00;1.40;;;11.50;99.90;;;;;;6308992;22;19999;-92
2023/12/25 18:01:17;;;;;;;7.70;1.55;;;11.50;99.90;;;;;;6309089;22;19999;-93
2023/12/25 18:03:46;;;;;;;5.50;1.35;;;11.60;99.90;;;;;;6308757;22;19999;-94
2023/12/25 18:06:21;;;;;;;3.42;1.00;;;11.40;99.90;;;;;;6320227;22;19983;-93
2023/12/25 18:12:28;;;;;;;2.05;0.82;;;11.50;99.90;;;;;;6312555;22;20028;-93
2023/12/25 18:14:58;;;;;;;4.13;0.80;;;11.50;99.90;;;;;;6325288;22;20019;-93
2023/12/25 18:17:24;;;;;;;1.63;0.52;;;11.40;99.90;;;;;;6332170;22;20074;-93
2023/12/25 18:20:05;;;;;;;3.33;0.80;;;11.40;99.90;;;;;;6337371;22;20015;-93
2023/12/25 18:22:33;;;;;;;4.95;1.08;;;11.40;99.90;;;;;;6308030;22;19999;-93
2023/12/25 18:24:59;;;;;;;4.45;1.33;;;11.40;99.90;;;;;;6308910;22;20000;-93
2023/12/25 18:27:31;;;;;;;2.75;0.95;;;11.40;99.90;;;;;;6308480;22;20450;-93
2023/12/25 18:30:30;;;;;;;3.33;0.90;;;11.40;99.90;;;;;;6308162;22;20034;-92
2023/12/25 18:33:02;;;;;;;2.45;1.02;;;11.40;99.90;;;;;;6309979;22;20002;-93
2023/12/25 18:35:40;;;;;;;1.67;0.77;;;10.60;99.90;;;;;;6333867;22;20007;-93
2023/12/25 18:41:36;;;;;;;2.97;0.93;;;11.40;99.90;;;;;;6348992;22;20029;-92
2023/12/25 18:44:09;;;;;;;2.47;1.00;;;11.30;99.90;;;;;;6346986;22;20002;-93